sensor_id;sensor_type;location;lat;lon;timestamp;pressure;altitude;pressure_sealevel;temperature;humidity
23427;BME280;41148;45.420;10.952;2023-10-31T00:00:53;99334.75;;;16.28;100.00
23427;BME280;41148;45.420;10.952;2023-10-31T00:03:20;99339.16;;;16.29;100.00
23427;BME280;41148;45.420;10.952;2023-10-31T00:05:48;99337.03;;;16.21;100.00
23427;BME280;41148;45.420;10.952;2023-10-31T00:08:15;99341.75;;;16.18;100.00
23427;BME280;41148;45.420;10.952;2023-10-31T00:10:42;99340.03;;;16.17;100.00
23427;BME280;41148;45.420;10.952;2023-10-31T00:13:12;99343.81;;;16.14;100.00
23427;BME280;41148;45.420;10.952;2023-10-31T00:15:39;99335.34;;;16.08;100.00
23427;BME280;41148;45.420;10.952;2023-10-31T00:18:07;99328.34;;;16.05;100.00
23427;BME280;41148;45.420;10.952;2023-10-31T00:20:34;99325.78;;;16.03;100.00
23427;BME280;41148;45.420;10.952;2023-10-31T00:23:01;99329.44;;;16.02;100.00
23427;BME280;41148;45.420;10.952;2023-10-31T00:25:29;99325.00;;;16.01;100.00
23427;BME280;41148;45.420;10.952;2023-10-31T00:27:56;99320.09;;;15.95;100.00
23427;BME280;41148;45.420;10.952;2023-10-31T00:30:23;99308.16;;;15.99;100.00
23427;BME280;41148;45.420;10.952;2023-10-31T00:32:51;99308.81;;;15.90;100.00
23427;BME280;41148;45.420;10.952;2023-10-31T00:35:20;99319.13;;;15.96;100.00
23427;BME280;41148;45.420;10.952;2023-10-31T00:37:47;99319.13;;;15.96;100.00
23427;BME280;41148;45.420;10.952;2023-10-31T00:40:15;99319.38;;;15.93;100.00
23427;BME280;41148;45.420;10.952;2023-10-31T00:42:43;99325.59;;;15.94;100.00
23427;BME280;41148;45.420;10.952;2023-10-31T00:45:13;99316.88;;;15.90;100.00
23427;BME280;41148;45.420;10.952;2023-10-31T00:47:41;99306.00;;;15.92;100.00
23427;BME280;41148;45.420;10.952;2023-10-31T00:50:08;99305.38;;;15.88;100.00
23427;BME280;41148;45.420;10.952;2023-10-31T00:52:36;99313.78;;;15.84;100.00
23427;BME280;41148;45.420;10.952;2023-10-31T00:55:03;99317.66;;;15.80;100.00
23427;BME280;41148;45.420;10.952;2023-10-31T00:57:31;99327.09;;;15.72;100.00
23427;BME280;41148;45.420;10.952;2023-10-31T00:59:58;99333.34;;;15.73;100.00
23427;BME280;41148;45.420;10.952;2023-10-31T01:02:25;99318.63;;;15.66;100.00
23427;BME280;41148;45.420;10.952;2023-10-31T01:04:53;99317.41;;;15.57;100.00
23427;BME280;41148;45.420;10.952;2023-10-31T01:07:20;99328.41;;;15.67;100.00
23427;BME280;41148;45.420;10.952;2023-10-31T01:09:47;99317.56;;;15.68;100.00
23427;BME280;41148;45.420;10.952;2023-10-31T01:12:15;99326.47;;;15.69;100.00
23427;BME280;41148;45.420;10.952;2023-10-31T01:14:42;99312.53;;;15.64;100.00
23427;BME280;41148;45.420;10.952;2023-10-31T01:17:10;99310.69;;;15.64;100.00
23427;BME280;41148;45.420;10.952;2023-10-31T01:19:37;99316.25;;;15.61;100.00
23427;BME280;41148;45.420;10.952;2023-10-31T01:22:04;99305.16;;;15.53;100.00
23427;BME280;41148;45.420;10.952;2023-10-31T01:24:32;99301.63;;;15.53;100.00
23427;BME280;41148;45.420;10.952;2023-10-31T01:26:59;99312.28;;;15.54;100.00
23427;BME280;41148;45.420;10.952;2023-10-31T01:29:26;99302.94;;;15.47;100.00
23427;BME280;41148;45.420;10.952;2023-10-31T01:31:53;99313.09;;;15.42;100.00
23427;BME280;41148;45.420;10.952;2023-10-31T01:34:27;99297.00;;;15.42;100.00
23427;BME280;41148;45.420;10.952;2023-10-31T01:36:55;99315.69;;;15.43;100.00
23427;BME280;41148;45.420;10.952;2023-10-31T01:39:22;99315.06;;;15.40;100.00
23427;BME280;41148;45.420;10.952;2023-10-31T01:41:49;99321.59;;;15.36;100.00
23427;BME280;41148;45.420;10.952;2023-10-31T01:44:17;99320.19;;;15.30;100.00
23427;BME280;41148;45.420;10.952;2023-10-31T01:46:44;99322.34;;;15.25;100.00
23427;BME280;41148;45.420;10.952;2023-10-31T01:49:12;99317.91;;;15.24;100.00
23427;BME280;41148;45.420;10.952;2023-10-31T01:51:40;99307.97;;;15.26;100.00
23427;BME280;41148;45.420;10.952;2023-10-31T01:54:08;99312.13;;;15.30;100.00
23427;BME280;41148;45.420;10.952;2023-10-31T01:56:37;99305.59;;;15.34;100.00
23427;BME280;41148;45.420;10.952;2023-10-31T01:59:07;99293.06;;;15.35;100.00
23427;BME280;41148;45.420;10.952;2023-10-31T02:01:38;99295.41;;;15.27;100.00
23427;BME280;41148;45.420;10.952;2023-10-31T02:04:07;99277.59;;;15.26;100.00
23427;BME280;41148;45.420;10.952;2023-10-31T02:06:34;99277.69;;;15.24;100.00
23427;BME280;41148;45.420;10.952;2023-10-31T02:09:01;99269.00;;;15.21;100.00
23427;BME280;41148;45.420;10.952;2023-10-31T02:11:29;99268.13;;;15.20;100.00
23427;BME280;41148;45.420;10.952;2023-10-31T02:13:56;99263.41;;;15.11;100.00
23427;BME280;41148;45.420;10.952;2023-10-31T02:16:23;99260.44;;;15.15;100.00
23427;BME280;41148;45.420;10.952;2023-10-31T02:18:52;99269.97;;;15.07;100.00
23427;BME280;41148;45.420;10.952;2023-10-31T02:21:20;99279.91;;;15.05;100.00
23427;BME280;41148;45.420;10.952;2023-10-31T02:24:00;99258.22;;;14.95;100.00
23427;BME280;41148;45.420;10.952;2023-10-31T02:26:31;99243.31;;;14.91;100.00
23427;BME280;41148;45.420;10.952;2023-10-31T02:28:59;99245.25;;;14.89;100.00
23427;BME280;41148;45.420;10.952;2023-10-31T02:31:26;99255.03;;;15.03;100.00
23427;BME280;41148;45.420;10.952;2023-10-31T02:33:54;99259.41;;;14.91;100.00
23427;BME280;41148;45.420;10.952;2023-10-31T02:36:21;99257.69;;;14.90;100.00
23427;BME280;41148;45.420;10.952;2023-10-31T02:38:49;99258.22;;;14.95;100.00
23427;BME280;41148;45.420;10.952;2023-10-31T02:41:16;99254.63;;;14.96;100.00
23427;BME280;41148;45.420;10.952;2023-10-31T02:43:43;99255.66;;;14.94;100.00
23427;BME280;41148;45.420;10.952;2023-10-31T02:46:11;99255.44;;;14.84;100.00
23427;BME280;41148;45.420;10.952;2023-10-31T02:48:40;99263.91;;;14.91;100.00
23427;BME280;41148;45.420;10.952;2023-10-31T02:51:26;99258.34;;;14.94;100.00
23427;BME280;41148;45.420;10.952;2023-10-31T02:53:53;99249.13;;;14.98;100.00
23427;BME280;41148;45.420;10.952;2023-10-31T02:56:20;99247.19;;;15.00;100.00
23427;BME280;41148;45.420;10.952;2023-10-31T02:58:48;99257.25;;;14.83;100.00
23427;BME280;41148;45.420;10.952;2023-10-31T03:01:15;99241.63;;;14.90;100.00
23427;BME280;41148;45.420;10.952;2023-10-31T03:03:44;99241.19;;;14.96;100.00
23427;BME280;41148;45.420;10.952;2023-10-31T03:06:12;99233.78;;;15.00;100.00
23427;BME280;41148;45.420;10.952;2023-10-31T03:08:39;99231.97;;;15.00;100.00
23427;BME280;41148;45.420;10.952;2023-10-31T03:11:06;99221.47;;;14.97;100.00
23427;BME280;41148;45.420;10.952;2023-10-31T03:13:34;99215.31;;;14.95;100.00
23427;BME280;41148;45.420;10.952;2023-10-31T03:16:01;99203.66;;;14.96;100.00
23427;BME280;41148;45.420;10.952;2023-10-31T03:18:28;99197.75;;;14.91;100.00
23427;BME280;41148;45.420;10.952;2023-10-31T03:20:56;99210.50;;;14.87;100.00
23427;BME280;41148;45.420;10.952;2023-10-31T03:23:23;99221.31;;;14.86;100.00
23427;BME280;41148;45.420;10.952;2023-10-31T03:25:50;99210.94;;;14.94;100.00
23427;BME280;41148;45.420;10.952;2023-10-31T03:28:18;99206.53;;;14.93;100.00
23427;BME280;41148;45.420;10.952;2023-10-31T03:30:47;99198.38;;;14.95;100.00
23427;BME280;41148;45.420;10.952;2023-10-31T03:33:14;99205.91;;;15.02;100.00
23427;BME280;41148;45.420;10.952;2023-10-31T03:35:43;99203.44;;;15.12;100.00
23427;BME280;41148;45.420;10.952;2023-10-31T03:38:10;99188.63;;;15.19;100.00
23427;BME280;41148;45.420;10.952;2023-10-31T03:40:37;99193.88;;;15.21;100.00
23427;BME280;41148;45.420;10.952;2023-10-31T03:43:05;99196.03;;;15.28;100.00
23427;BME280;41148;45.420;10.952;2023-10-31T03:45:32;99172.72;;;15.29;100.00
23427;BME280;41148;45.420;10.952;2023-10-31T03:48:00;99163.94;;;15.27;100.00
23427;BME280;41148;45.420;10.952;2023-10-31T03:50:27;99168.53;;;15.25;100.00
23427;BME280;41148;45.420;10.952;2023-10-31T03:52:54;99176.28;;;15.29;100.00
23427;BME280;41148;45.420;10.952;2023-10-31T03:55:21;99185.19;;;15.30;100.00
23427;BME280;41148;45.420;10.952;2023-10-31T03:57:50;99181.53;;;15.31;100.00
23427;BME280;41148;45.420;10.952;2023-10-31T04:00:17;99191.28;;;15.32;100.00
23427;BME280;41148;45.420;10.952;2023-10-31T04:02:45;99189.56;;;15.31;100.00
23427;BME280;41148;45.420;10.952;2023-10-31T04:05:13;99169.50;;;15.24;100.00
23427;BME280;41148;45.420;10.952;2023-10-31T04:07:40;99172.31;;;15.22;100.00
23427;BME280;41148;45.420;10.952;2023-10-31T04:10:08;99169.94;;;15.30;100.00
23427;BME280;41148;45.420;10.952;2023-10-31T04:12:35;99158.69;;;15.25;100.00
23427;BME280;41148;45.420;10.952;2023-10-31T04:15:02;99147.53;;;15.18;100.00
23427;BME280;41148;45.420;10.952;2023-10-31T04:17:30;99154.84;;;15.16;100.00
23427;BME280;41148;45.420;10.952;2023-10-31T04:19:58;99178.41;;;15.24;100.00
23427;BME280;41148;45.420;10.952;2023-10-31T04:22:25;99180.66;;;15.30;100.00
23427;BME280;41148;45.420;10.952;2023-10-31T04:24:52;99185.06;;;15.31;100.00
23427;BME280;41148;45.420;10.952;2023-10-31T04:27:19;99170.78;;;15.31;100.00
23427;BME280;41148;45.420;10.952;2023-10-31T04:29:47;99158.78;;;15.24;100.00
23427;BME280;41148;45.420;10.952;2023-10-31T04:32:14;99153.53;;;15.22;100.00
23427;BME280;41148;45.420;10.952;2023-10-31T04:34:41;99154.91;;;15.15;100.00
23427;BME280;41148;45.420;10.952;2023-10-31T04:37:09;99154.91;;;15.15;100.00
23427;BME280;41148;45.420;10.952;2023-10-31T04:39:36;99148.50;;;15.17;100.00
23427;BME280;41148;45.420;10.952;2023-10-31T04:42:04;99141.50;;;15.15;100.00
23427;BME280;41148;45.420;10.952;2023-10-31T04:44:31;99149.25;;;15.20;100.00
23427;BME280;41148;45.420;10.952;2023-10-31T04:46:58;99153.63;;;15.21;100.00
23427;BME280;41148;45.420;10.952;2023-10-31T04:49:25;99156.09;;;15.24;100.00
23427;BME280;41148;45.420;10.952;2023-10-31T04:51:53;99148.81;;;15.26;100.00
23427;BME280;41148;45.420;10.952;2023-10-31T04:54:20;99149.75;;;15.25;100.00
23427;BME280;41148;45.420;10.952;2023-10-31T04:56:48;99147.19;;;15.23;100.00
23427;BME280;41148;45.420;10.952;2023-10-31T04:59:16;99139.91;;;15.25;100.00
23427;BME280;41148;45.420;10.952;2023-10-31T05:01:50;99135.41;;;15.26;100.00
23427;BME280;41148;45.420;10.952;2023-10-31T05:04:18;99132.72;;;15.26;100.00
23427;BME280;41148;45.420;10.952;2023-10-31T05:06:45;99128.84;;;15.30;100.00
23427;BME280;41148;45.420;10.952;2023-10-31T05:09:13;99133.78;;;15.36;100.00
23427;BME280;41148;45.420;10.952;2023-10-31T05:11:41;99141.34;;;15.42;100.00
23427;BME280;41148;45.420;10.952;2023-10-31T05:14:09;99147.03;;;15.50;100.00
23427;BME280;41148;45.420;10.952;2023-10-31T05:16:44;99144.13;;;15.53;100.00
23427;BME280;41148;45.420;10.952;2023-10-31T05:19:11;99133.72;;;15.49;100.00
23427;BME280;41148;45.420;10.952;2023-10-31T05:21:38;99130.69;;;15.53;100.00
23427;BME280;41148;45.420;10.952;2023-10-31T05:24:06;99130.94;;;15.50;100.00
23427;BME280;41148;45.420;10.952;2023-10-31T05:26:33;99135.44;;;15.50;100.00
23427;BME280;41148;45.420;10.952;2023-10-31T05:29:00;99142.88;;;15.46;100.00
23427;BME280;41148;45.420;10.952;2023-10-31T05:31:27;99158.19;;;15.57;100.00
23427;BME280;41148;45.420;10.952;2023-10-31T05:33:55;99152.72;;;15.58;100.00
23427;BME280;41148;45.420;10.952;2023-10-31T05:36:23;99131.34;;;15.57;100.00
23427;BME280;41148;45.420;10.952;2023-10-31T05:38:50;99138.75;;;15.53;100.00
23427;BME280;41148;45.420;10.952;2023-10-31T05:41:17;99137.16;;;15.51;100.00
23427;BME280;41148;45.420;10.952;2023-10-31T05:43:45;99126.75;;;15.46;100.00
23427;BME280;41148;45.420;10.952;2023-10-31T05:46:12;99139.09;;;15.49;100.00
23427;BME280;41148;45.420;10.952;2023-10-31T05:48:43;99139.72;;;15.52;100.00
23427;BME280;41148;45.420;10.952;2023-10-31T05:51:14;99139.31;;;15.45;100.00
23427;BME280;41148;45.420;10.952;2023-10-31T05:53:42;99148.97;;;15.48;100.00
23427;BME280;41148;45.420;10.952;2023-10-31T05:56:11;99154.22;;;15.50;100.00
23427;BME280;41148;45.420;10.952;2023-10-31T05:58:39;99155.19;;;15.49;100.00
23427;BME280;41148;45.420;10.952;2023-10-31T06:01:06;99156.41;;;15.44;100.00
23427;BME280;41148;45.420;10.952;2023-10-31T06:03:35;99165.63;;;15.40;100.00
23427;BME280;41148;45.420;10.952;2023-10-31T06:06:02;99164.16;;;15.36;100.00
23427;BME280;41148;45.420;10.952;2023-10-31T06:08:29;99172.38;;;15.33;100.00
23427;BME280;41148;45.420;10.952;2023-10-31T06:10:57;99195.56;;;15.34;100.00
23427;BME280;41148;45.420;10.952;2023-10-31T06:13:24;99207.38;;;15.32;100.00
23427;BME280;41148;45.420;10.952;2023-10-31T06:15:53;99208.97;;;15.34;100.00
23427;BME280;41148;45.420;10.952;2023-10-31T06:18:25;99229.41;;;15.37;100.00
23427;BME280;41148;45.420;10.952;2023-10-31T06:20:52;99241.97;;;15.36;100.00
23427;BME280;41148;45.420;10.952;2023-10-31T06:23:20;99251.50;;;15.28;100.00
23427;BME280;41148;45.420;10.952;2023-10-31T06:25:47;99262.78;;;15.20;100.00
23427;BME280;41148;45.420;10.952;2023-10-31T06:28:15;99260.72;;;15.11;100.00
23427;BME280;41148;45.420;10.952;2023-10-31T06:30:42;99270.50;;;15.12;100.00
23427;BME280;41148;45.420;10.952;2023-10-31T06:33:09;99268.88;;;15.09;100.00
23427;BME280;41148;45.420;10.952;2023-10-31T06:35:37;99276.94;;;15.09;100.00
23427;BME280;41148;45.420;10.952;2023-10-31T06:38:05;99273.69;;;15.04;100.00
23427;BME280;41148;45.420;10.952;2023-10-31T06:40:32;99259.31;;;15.05;100.00
23427;BME280;41148;45.420;10.952;2023-10-31T06:43:00;99263.06;;;15.03;100.00
23427;BME280;41148;45.420;10.952;2023-10-31T06:45:28;99255.34;;;14.98;100.00
23427;BME280;41148;45.420;10.952;2023-10-31T06:47:56;99258.56;;;15.03;100.00
23427;BME280;41148;45.420;10.952;2023-10-31T06:50:23;99266.50;;;15.05;100.00
23427;BME280;41148;45.420;10.952;2023-10-31T06:52:51;99268.88;;;14.97;100.00
23427;BME280;41148;45.420;10.952;2023-10-31T06:55:18;99271.00;;;15.04;100.00
23427;BME280;41148;45.420;10.952;2023-10-31T06:57:46;99274.78;;;15.02;100.00
23427;BME280;41148;45.420;10.952;2023-10-31T07:00:13;99284.13;;;15.09;100.00
23427;BME280;41148;45.420;10.952;2023-10-31T07:02:41;99287.88;;;15.19;100.00
23427;BME280;41148;45.420;10.952;2023-10-31T07:05:08;99293.59;;;15.27;100.00
23427;BME280;41148;45.420;10.952;2023-10-31T07:07:36;99298.28;;;15.24;100.00
23427;BME280;41148;45.420;10.952;2023-10-31T07:10:03;99307.84;;;15.28;100.00
23427;BME280;41148;45.420;10.952;2023-10-31T07:12:30;99301.19;;;15.33;100.00
23427;BME280;41148;45.420;10.952;2023-10-31T07:15:00;99307.34;;;15.35;100.00
23427;BME280;41148;45.420;10.952;2023-10-31T07:17:28;99313.63;;;15.34;100.00
23427;BME280;41148;45.420;10.952;2023-10-31T07:19:55;99309.56;;;15.29;100.00
23427;BME280;41148;45.420;10.952;2023-10-31T07:22:22;99317.72;;;15.27;100.00
23427;BME280;41148;45.420;10.952;2023-10-31T07:24:51;99315.78;;;15.16;100.00
23427;BME280;41148;45.420;10.952;2023-10-31T07:27:19;99314.47;;;15.09;100.00
23427;BME280;41148;45.420;10.952;2023-10-31T07:29:46;99304.59;;;14.97;100.00
23427;BME280;41148;45.420;10.952;2023-10-31T07:32:13;99313.66;;;14.82;100.00
23427;BME280;41148;45.420;10.952;2023-10-31T07:34:41;99311.63;;;14.85;100.00
23427;BME280;41148;45.420;10.952;2023-10-31T07:37:12;99296.72;;;14.81;100.00
23427;BME280;41148;45.420;10.952;2023-10-31T07:39:39;99280.06;;;14.76;100.00
23427;BME280;41148;45.420;10.952;2023-10-31T07:42:06;99293.28;;;14.79;100.00
23427;BME280;41148;45.420;10.952;2023-10-31T07:44:35;99281.50;;;14.82;100.00
23427;BME280;41148;45.420;10.952;2023-10-31T07:47:02;99270.31;;;14.75;100.00
23427;BME280;41148;45.420;10.952;2023-10-31T07:49:29;99266.88;;;14.73;100.00
23427;BME280;41148;45.420;10.952;2023-10-31T07:51:56;99270.53;;;14.72;100.00
23427;BME280;41148;45.420;10.952;2023-10-31T07:54:24;99311.19;;;14.79;100.00
23427;BME280;41148;45.420;10.952;2023-10-31T07:56:51;99311.06;;;15.07;100.00
23427;BME280;41148;45.420;10.952;2023-10-31T07:59:18;99317.22;;;14.95;100.00
23427;BME280;41148;45.420;10.952;2023-10-31T08:01:46;99322.94;;;14.64;100.00
23427;BME280;41148;45.420;10.952;2023-10-31T08:04:17;99308.72;;;15.28;100.00
23427;BME280;41148;45.420;10.952;2023-10-31T08:06:44;99308.47;;;16.08;100.00
23427;BME280;41148;45.420;10.952;2023-10-31T08:09:11;99312.06;;;15.57;100.00
23427;BME280;41148;45.420;10.952;2023-10-31T08:11:39;99310.44;;;15.16;100.00
23427;BME280;41148;45.420;10.952;2023-10-31T08:14:06;99308.94;;;14.85;100.00
23427;BME280;41148;45.420;10.952;2023-10-31T08:19:09;99317.78;;;14.87;100.00
23427;BME280;41148;45.420;10.952;2023-10-31T08:21:36;99323.53;;;14.54;100.00
23427;BME280;41148;45.420;10.952;2023-10-31T08:24:05;99318.38;;;14.37;100.00
23427;BME280;41148;45.420;10.952;2023-10-31T08:26:32;99315.84;;;14.21;100.00
23427;BME280;41148;45.420;10.952;2023-10-31T08:29:00;99320.75;;;14.15;100.00
23427;BME280;41148;45.420;10.952;2023-10-31T08:31:27;99309.66;;;14.07;100.00
23427;BME280;41148;45.420;10.952;2023-10-31T08:33:54;99314.53;;;14.14;100.00
23427;BME280;41148;45.420;10.952;2023-10-31T08:36:21;99322.56;;;14.14;100.00
23427;BME280;41148;45.420;10.952;2023-10-31T08:38:49;99321.13;;;14.09;100.00
23427;BME280;41148;45.420;10.952;2023-10-31T08:41:16;99323.25;;;14.03;100.00
23427;BME280;41148;45.420;10.952;2023-10-31T08:43:47;99327.16;;;14.12;100.00
23427;BME280;41148;45.420;10.952;2023-10-31T08:46:14;99329.94;;;14.11;100.00
23427;BME280;41148;45.420;10.952;2023-10-31T08:48:42;99339.22;;;14.19;100.00
23427;BME280;41148;45.420;10.952;2023-10-31T08:51:09;99344.63;;;14.18;100.00
23427;BME280;41148;45.420;10.952;2023-10-31T08:53:36;99351.34;;;14.25;100.00
23427;BME280;41148;45.420;10.952;2023-10-31T08:56:03;99351.34;;;14.25;100.00
23427;BME280;41148;45.420;10.952;2023-10-31T08:58:31;99353.72;;;14.29;100.00
23427;BME280;41148;45.420;10.952;2023-10-31T09:00:58;99340.88;;;14.35;100.00
23427;BME280;41148;45.420;10.952;2023-10-31T09:03:25;99341.63;;;14.37;100.00
23427;BME280;41148;45.420;10.952;2023-10-31T09:05:53;99332.66;;;14.52;100.00
23427;BME280;41148;45.420;10.952;2023-10-31T09:08:20;99346.84;;;14.67;100.00
23427;BME280;41148;45.420;10.952;2023-10-31T09:10:47;99338.25;;;14.62;99.72
23427;BME280;41148;45.420;10.952;2023-10-31T09:13:15;99333.03;;;14.46;99.48
23427;BME280;41148;45.420;10.952;2023-10-31T09:15:42;99339.06;;;14.49;99.37
23427;BME280;41148;45.420;10.952;2023-10-31T09:18:11;99341.75;;;14.49;100.00
23427;BME280;41148;45.420;10.952;2023-10-31T09:20:40;99349.47;;;14.54;99.67
23427;BME280;41148;45.420;10.952;2023-10-31T09:23:07;99338.75;;;14.54;99.19
23427;BME280;41148;45.420;10.952;2023-10-31T09:25:34;99339.06;;;14.49;96.49
23427;BME280;41148;45.420;10.952;2023-10-31T09:28:01;99338.66;;;14.55;96.75
23427;BME280;41148;45.420;10.952;2023-10-31T09:30:29;99346.78;;;14.54;94.55
23427;BME280;41148;45.420;10.952;2023-10-31T09:32:56;99347.38;;;14.59;95.59
23427;BME280;41148;45.420;10.952;2023-10-31T09:35:24;99348.22;;;14.59;92.07
23427;BME280;41148;45.420;10.952;2023-10-31T09:37:52;99340.88;;;14.76;93.95
23427;BME280;41148;45.420;10.952;2023-10-31T09:40:20;99345.53;;;14.86;94.21
23427;BME280;41148;45.420;10.952;2023-10-31T09:42:49;99355.50;;;14.84;89.87
23427;BME280;41148;45.420;10.952;2023-10-31T09:45:16;99360.56;;;14.89;90.84
23427;BME280;41148;45.420;10.952;2023-10-31T09:47:44;99361.41;;;14.89;90.39
23427;BME280;41148;45.420;10.952;2023-10-31T09:50:11;99381.88;;;14.78;89.88
23427;BME280;41148;45.420;10.952;2023-10-31T09:52:38;99378.25;;;14.65;91.35
23427;BME280;41148;45.420;10.952;2023-10-31T09:55:06;99387.22;;;14.51;90.95
23427;BME280;41148;45.420;10.952;2023-10-31T09:57:34;99384.97;;;14.43;90.98
23427;BME280;41148;45.420;10.952;2023-10-31T10:00:02;99397.91;;;14.37;91.03
23427;BME280;41148;45.420;10.952;2023-10-31T10:02:36;99408.72;;;14.35;94.12
23427;BME280;41148;45.420;10.952;2023-10-31T10:05:04;99409.41;;;14.24;93.15
23427;BME280;41148;45.420;10.952;2023-10-31T10:07:31;99420.91;;;14.12;91.07
23427;BME280;41148;45.420;10.952;2023-10-31T10:10:00;99431.72;;;14.11;92.67
23427;BME280;41148;45.420;10.952;2023-10-31T10:12:27;99434.75;;;14.04;91.80
23427;BME280;41148;45.420;10.952;2023-10-31T10:14:56;99442.25;;;13.99;93.18
23427;BME280;41148;45.420;10.952;2023-10-31T10:17:24;99447.50;;;14.01;95.03
23427;BME280;41148;45.420;10.952;2023-10-31T10:20:07;99455.63;;;13.99;95.88
23427;BME280;41148;45.420;10.952;2023-10-31T10:22:42;99453.31;;;13.93;96.32
23427;BME280;41148;45.420;10.952;2023-10-31T10:25:10;99454.16;;;13.94;97.05
23427;BME280;41148;45.420;10.952;2023-10-31T10:27:42;99461.75;;;14.01;99.42
23427;BME280;41148;45.420;10.952;2023-10-31T10:30:10;99472.84;;;14.10;98.42
23427;BME280;41148;45.420;10.952;2023-10-31T10:32:38;99482.75;;;14.08;98.73
23427;BME280;41148;45.420;10.952;2023-10-31T10:35:06;99496.56;;;14.01;99.86
23427;BME280;41148;45.420;10.952;2023-10-31T10:37:35;99510.59;;;13.91;100.00
23427;BME280;41148;45.420;10.952;2023-10-31T10:40:04;99508.69;;;13.93;100.00
23427;BME280;41148;45.420;10.952;2023-10-31T10:42:46;99504.28;;;13.92;100.00
23427;BME280;41148;45.420;10.952;2023-10-31T10:45:15;99513.75;;;13.97;100.00
23427;BME280;41148;45.420;10.952;2023-10-31T10:47:47;99521.59;;;14.00;100.00
23427;BME280;41148;45.420;10.952;2023-10-31T10:50:14;99523.81;;;14.08;100.00
23427;BME280;41148;45.420;10.952;2023-10-31T10:52:49;99552.69;;;14.17;100.00
23427;BME280;41148;45.420;10.952;2023-10-31T10:55:25;99569.94;;;14.13;100.00
23427;BME280;41148;45.420;10.952;2023-10-31T11:00:26;99586.41;;;13.91;100.00
23427;BME280;41148;45.420;10.952;2023-10-31T11:02:53;99607.69;;;13.79;100.00
23427;BME280;41148;45.420;10.952;2023-10-31T11:05:25;99625.22;;;13.68;100.00
23427;BME280;41148;45.420;10.952;2023-10-31T11:07:53;99643.19;;;13.51;100.00
23427;BME280;41148;45.420;10.952;2023-10-31T11:10:24;99654.94;;;13.32;100.00
23427;BME280;41148;45.420;10.952;2023-10-31T11:12:52;99660.56;;;13.10;100.00
23427;BME280;41148;45.420;10.952;2023-10-31T11:15:20;99681.66;;;12.99;100.00
23427;BME280;41148;45.420;10.952;2023-10-31T11:17:48;99688.53;;;12.87;100.00
23427;BME280;41148;45.420;10.952;2023-10-31T11:20:16;99687.84;;;12.84;100.00
23427;BME280;41148;45.420;10.952;2023-10-31T11:22:44;99686.34;;;12.78;100.00
23427;BME280;41148;45.420;10.952;2023-10-31T11:25:13;99695.72;;;12.70;100.00
23427;BME280;41148;45.420;10.952;2023-10-31T11:27:52;99703.13;;;12.65;100.00
23427;BME280;41148;45.420;10.952;2023-10-31T11:30:30;99709.81;;;12.56;100.00
23427;BME280;41148;45.420;10.952;2023-10-31T11:32:59;99720.81;;;12.67;100.00
23427;BME280;41148;45.420;10.952;2023-10-31T11:35:34;99720.47;;;12.73;100.00
23427;BME280;41148;45.420;10.952;2023-10-31T11:38:08;99739.19;;;12.73;100.00
23427;BME280;41148;45.420;10.952;2023-10-31T11:40:36;99732.66;;;12.79;100.00
23427;BME280;41148;45.420;10.952;2023-10-31T11:43:04;99730.69;;;12.82;100.00
23427;BME280;41148;45.420;10.952;2023-10-31T11:45:36;99731.09;;;12.75;100.00
23427;BME280;41148;45.420;10.952;2023-10-31T11:48:04;99738.56;;;12.85;100.00
23427;BME280;41148;45.420;10.952;2023-10-31T11:50:32;99732.66;;;12.79;100.00
23427;BME280;41148;45.420;10.952;2023-10-31T11:53:00;99703.91;;;12.84;100.00
23427;BME280;41148;45.420;10.952;2023-10-31T11:55:28;99686.97;;;12.83;100.00
23427;BME280;41148;45.420;10.952;2023-10-31T11:57:55;99676.81;;;12.90;100.00
23427;BME280;41148;45.420;10.952;2023-10-31T12:00:23;99648.03;;;12.95;100.00
23427;BME280;41148;45.420;10.952;2023-10-31T12:03:00;99661.28;;;13.14;100.00
23427;BME280;41148;45.420;10.952;2023-10-31T12:05:28;99679.78;;;13.34;100.00
23427;BME280;41148;45.420;10.952;2023-10-31T12:07:56;99686.91;;;13.51;100.00
23427;BME280;41148;45.420;10.952;2023-10-31T12:10:24;99691.28;;;13.68;100.00
23427;BME280;41148;45.420;10.952;2023-10-31T12:12:52;99705.84;;;13.78;100.00
23427;BME280;41148;45.420;10.952;2023-10-31T12:15:20;99719.00;;;13.83;100.00
23427;BME280;41148;45.420;10.952;2023-10-31T12:17:47;99721.06;;;13.93;100.00
23427;BME280;41148;45.420;10.952;2023-10-31T12:20:15;99721.41;;;14.03;100.00
23427;BME280;41148;45.420;10.952;2023-10-31T12:22:47;99723.19;;;14.18;100.00
23427;BME280;41148;45.420;10.952;2023-10-31T12:25:14;99716.63;;;14.24;100.00
23427;BME280;41148;45.420;10.952;2023-10-31T12:27:44;99713.59;;;14.30;100.00
23427;BME280;41148;45.420;10.952;2023-10-31T12:30:13;99716.84;;;14.35;100.00
23427;BME280;41148;45.420;10.952;2023-10-31T12:32:40;99718.91;;;14.46;100.00
23427;BME280;41148;45.420;10.952;2023-10-31T12:35:10;99711.28;;;14.54;100.00
23427;BME280;41148;45.420;10.952;2023-10-31T12:37:46;99725.00;;;14.64;97.31
23427;BME280;41148;45.420;10.952;2023-10-31T12:40:14;99722.81;;;14.70;93.11
23427;BME280;41148;45.420;10.952;2023-10-31T12:42:42;99728.75;;;14.75;93.45
23427;BME280;41148;45.420;10.952;2023-10-31T12:45:10;99736.03;;;14.73;93.09
23427;BME280;41148;45.420;10.952;2023-10-31T12:47:38;99736.75;;;14.77;92.85
23427;BME280;41148;45.420;10.952;2023-10-31T12:50:06;99730.88;;;14.84;93.07